sensor_id;sensor_type;location;lat;lon;timestamp;pressure;altitude;pressure_sealevel;temperature;humidity
59367;BME280;45163;47.690;11.770;2023-04-22T00:00:05;92851.34;;;4.91;100.00
59367;BME280;45163;47.690;11.770;2023-04-22T00:02:33;92854.41;;;4.93;100.00
59367;BME280;45163;47.690;11.770;2023-04-22T00:05:02;92850.69;;;4.84;100.00
59367;BME280;45163;47.690;11.770;2023-04-22T00:07:28;92841.09;;;4.79;100.00
59367;BME280;45163;47.690;11.770;2023-04-22T00:09:54;92843.78;;;4.79;100.00
59367;BME280;45163;47.690;11.770;2023-04-22T00:12:20;92848.50;;;4.75;100.00
59367;BME280;45163;47.690;11.770;2023-04-22T00:14:47;92843.13;;;4.71;100.00
59367;BME280;45163;47.690;11.770;2023-04-22T00:17:13;92848.50;;;4.75;100.00
59367;BME280;45163;47.690;11.770;2023-04-22T00:19:40;92843.03;;;4.79;100.00
59367;BME280;45163;47.690;11.770;2023-04-22T00:22:06;92849.72;;;4.97;100.00
59367;BME280;45163;47.690;11.770;2023-04-22T00:24:32;92849.94;;;5.07;100.00
59367;BME280;45163;47.690;11.770;2023-04-22T00:26:58;92850.47;;;4.98;100.00
59367;BME280;45163;47.690;11.770;2023-04-22T00:29:24;92845.50;;;4.93;100.00
59367;BME280;45163;47.690;11.770;2023-04-22T00:31:50;92844.16;;;4.81;100.00
59367;BME280;45163;47.690;11.770;2023-04-22T00:34:16;92846.53;;;4.75;100.00
59367;BME280;45163;47.690;11.770;2023-04-22T00:36:42;92843.59;;;4.66;100.00
59367;BME280;45163;47.690;11.770;2023-04-22T00:39:08;92846.91;;;4.78;100.00
59367;BME280;45163;47.690;11.770;2023-04-22T00:41:35;92845.47;;;4.96;100.00
59367;BME280;45163;47.690;11.770;2023-04-22T00:44:01;92846.22;;;4.97;100.00
59367;BME280;45163;47.690;11.770;2023-04-22T00:46:28;92846.78;;;4.85;100.00
59367;BME280;45163;47.690;11.770;2023-04-22T00:48:54;92846.88;;;4.81;100.00
59367;BME280;45163;47.690;11.770;2023-04-22T00:51:20;92844.25;;;4.74;100.00
59367;BME280;45163;47.690;11.770;2023-04-22T00:53:46;92848.25;;;4.66;100.00
59367;BME280;45163;47.690;11.770;2023-04-22T00:56:13;92850.19;;;4.65;100.00
59367;BME280;45163;47.690;11.770;2023-04-22T00:58:39;92843.59;;;4.66;100.00
59367;BME280;45163;47.690;11.770;2023-04-22T01:01:05;92843.34;;;4.57;100.00
59367;BME280;45163;47.690;11.770;2023-04-22T01:03:31;92842.16;;;4.58;100.00
59367;BME280;45163;47.690;11.770;2023-04-22T01:05:58;92842.13;;;4.62;100.00
59367;BME280;45163;47.690;11.770;2023-04-22T01:08:27;92835.13;;;4.64;100.00
59367;BME280;45163;47.690;11.770;2023-04-22T01:10:55;92846.66;;;4.68;100.00
59367;BME280;45163;47.690;11.770;2023-04-22T01:13:22;92844.81;;;4.62;100.00
59367;BME280;45163;47.690;11.770;2023-04-22T01:15:50;92847.97;;;4.57;100.00
59367;BME280;45163;47.690;11.770;2023-04-22T01:18:18;92845.28;;;4.57;100.00
59367;BME280;45163;47.690;11.770;2023-04-22T01:20:44;92839.47;;;4.58;100.00
59367;BME280;45163;47.690;11.770;2023-04-22T01:23:16;92844.88;;;4.58;100.00
59367;BME280;45163;47.690;11.770;2023-04-22T01:25:44;92834.13;;;4.51;100.00
59367;BME280;45163;47.690;11.770;2023-04-22T01:28:11;92842.72;;;4.46;100.00
59367;BME280;45163;47.690;11.770;2023-04-22T01:30:37;92841.53;;;4.47;100.00
59367;BME280;45163;47.690;11.770;2023-04-22T01:33:04;92843.22;;;4.37;100.00
59367;BME280;45163;47.690;11.770;2023-04-22T01:35:30;92839.06;;;4.29;100.00
59367;BME280;45163;47.690;11.770;2023-04-22T01:38:03;92845.28;;;4.26;100.00
59367;BME280;45163;47.690;11.770;2023-04-22T01:40:30;92843.28;;;4.30;100.00
59367;BME280;45163;47.690;11.770;2023-04-22T01:42:58;92844.44;;;4.33;100.00
59367;BME280;45163;47.690;11.770;2023-04-22T01:45:25;92852.19;;;4.31;100.00
59367;BME280;45163;47.690;11.770;2023-04-22T01:47:51;92847.19;;;4.29;100.00
59367;BME280;45163;47.690;11.770;2023-04-22T01:50:17;92849.63;;;4.20;100.00
59367;BME280;45163;47.690;11.770;2023-04-22T01:52:43;92847.31;;;4.18;100.00
59367;BME280;45163;47.690;11.770;2023-04-22T01:55:09;92846.53;;;4.18;100.00
59367;BME280;45163;47.690;11.770;2023-04-22T01:57:35;92850.88;;;4.12;100.00
59367;BME280;45163;47.690;11.770;2023-04-22T02:00:02;92858.47;;;4.20;100.00
59367;BME280;45163;47.690;11.770;2023-04-22T02:02:30;92853.59;;;4.08;100.00
59367;BME280;45163;47.690;11.770;2023-04-22T02:04:56;92853.66;;;4.05;100.00
59367;BME280;45163;47.690;11.770;2023-04-22T02:07:22;92864.41;;;4.08;100.00
59367;BME280;45163;47.690;11.770;2023-04-22T02:09:49;92861.97;;;4.17;100.00
59367;BME280;45163;47.690;11.770;2023-04-22T02:12:15;92850.16;;;4.08;100.00
59367;BME280;45163;47.690;11.770;2023-04-22T02:14:41;92853.34;;;3.99;100.00
59367;BME280;45163;47.690;11.770;2023-04-22T02:17:07;92856.81;;;3.99;100.00
59367;BME280;45163;47.690;11.770;2023-04-22T02:19:33;92847.94;;;3.99;100.00
59367;BME280;45163;47.690;11.770;2023-04-22T02:21:59;92851.09;;;3.94;100.00
59367;BME280;45163;47.690;11.770;2023-04-22T02:24:25;92859.94;;;3.94;100.00
59367;BME280;45163;47.690;11.770;2023-04-22T02:26:51;92854.59;;;3.91;100.00
59367;BME280;45163;47.690;11.770;2023-04-22T02:29:17;92852.28;;;3.89;100.00
59367;BME280;45163;47.690;11.770;2023-04-22T02:31:43;92853.53;;;3.81;100.00
59367;BME280;45163;47.690;11.770;2023-04-22T02:34:09;92858.56;;;3.79;100.00
59367;BME280;45163;47.690;11.770;2023-04-22T02:36:35;92858.53;;;3.83;100.00
59367;BME280;45163;47.690;11.770;2023-04-22T02:39:01;92862.72;;;3.87;100.00
59367;BME280;45163;47.690;11.770;2023-04-22T02:41:28;92853.44;;;3.88;100.00
59367;BME280;45163;47.690;11.770;2023-04-22T02:43:54;92850.41;;;3.86;100.00
59367;BME280;45163;47.690;11.770;2023-04-22T02:46:20;92858.50;;;3.86;100.00
59367;BME280;45163;47.690;11.770;2023-04-22T02:48:46;92854.38;;;3.74;100.00
59367;BME280;45163;47.690;11.770;2023-04-22T02:51:12;92853.97;;;3.76;100.00
59367;BME280;45163;47.690;11.770;2023-04-22T02:53:38;92856.34;;;3.70;100.00
59367;BME280;45163;47.690;11.770;2023-04-22T02:56:04;92854.38;;;3.74;100.00
59367;BME280;45163;47.690;11.770;2023-04-22T02:58:30;92851.63;;;3.78;100.00
59367;BME280;45163;47.690;11.770;2023-04-22T03:00:56;92844.72;;;3.77;100.00
59367;BME280;45163;47.690;11.770;2023-04-22T03:03:22;92844.44;;;3.68;100.00
59367;BME280;45163;47.690;11.770;2023-04-22T03:05:48;92847.91;;;3.68;100.00
59367;BME280;45163;47.690;11.770;2023-04-22T03:08:14;92845.22;;;3.65;100.00
59367;BME280;45163;47.690;11.770;2023-04-22T03:10:40;92843.41;;;3.51;100.00
59367;BME280;45163;47.690;11.770;2023-04-22T03:13:06;92844.56;;;3.54;100.00
59367;BME280;45163;47.690;11.770;2023-04-22T03:15:32;92845.00;;;3.48;100.00
59367;BME280;45163;47.690;11.770;2023-04-22T03:17:58;92848.50;;;3.45;100.00
59367;BME280;45163;47.690;11.770;2023-04-22T03:20:24;92850.25;;;3.63;100.00
59367;BME280;45163;47.690;11.770;2023-04-22T03:22:50;92850.84;;;3.81;100.00
59367;BME280;45163;47.690;11.770;2023-04-22T03:25:16;92845.59;;;4.01;100.00
59367;BME280;45163;47.690;11.770;2023-04-22T03:27:42;92842.81;;;4.08;100.00
59367;BME280;45163;47.690;11.770;2023-04-22T03:30:08;92846.78;;;3.96;100.00
59367;BME280;45163;47.690;11.770;2023-04-22T03:32:34;92840.16;;;3.70;100.00
59367;BME280;45163;47.690;11.770;2023-04-22T03:35:00;92845.22;;;3.65;100.00
59367;BME280;45163;47.690;11.770;2023-04-22T03:37:26;92834.03;;;3.66;100.00
59367;BME280;45163;47.690;11.770;2023-04-22T03:39:52;92844.03;;;3.69;100.00
59367;BME280;45163;47.690;11.770;2023-04-22T03:42:18;92842.19;;;3.59;100.00
59367;BME280;45163;47.690;11.770;2023-04-22T03:44:44;92847.59;;;3.59;100.00
59367;BME280;45163;47.690;11.770;2023-04-22T03:47:10;92842.28;;;3.52;100.00
59367;BME280;45163;47.690;11.770;2023-04-22T03:49:36;92843.53;;;3.78;100.00
59367;BME280;45163;47.690;11.770;2023-04-22T03:52:02;92846.41;;;3.98;100.00
59367;BME280;45163;47.690;11.770;2023-04-22T03:54:28;92843.28;;;3.99;100.00
59367;BME280;45163;47.690;11.770;2023-04-22T03:56:54;92846.13;;;3.89;100.00
59367;BME280;45163;47.690;11.770;2023-04-22T03:59:20;92847.81;;;4.10;100.00
59367;BME280;45163;47.690;11.770;2023-04-22T04:01:46;92843.75;;;3.94;100.00
59367;BME280;45163;47.690;11.770;2023-04-22T04:04:13;92847.69;;;3.86;100.00
59367;BME280;45163;47.690;11.770;2023-04-22T04:06:39;92853.97;;;3.76;100.00
59367;BME280;45163;47.690;11.770;2023-04-22T04:09:05;92847.50;;;3.70;100.00
59367;BME280;45163;47.690;11.770;2023-04-22T04:11:31;92858.69;;;3.68;100.00
59367;BME280;45163;47.690;11.770;2023-04-22T04:13:57;92846.09;;;3.55;100.00
59367;BME280;45163;47.690;11.770;2023-04-22T04:16:23;92846.56;;;3.46;100.00
59367;BME280;45163;47.690;11.770;2023-04-22T04:18:49;92850.03;;;3.46;100.00
59367;BME280;45163;47.690;11.770;2023-04-22T04:21:16;92859.94;;;3.60;100.00
59367;BME280;45163;47.690;11.770;2023-04-22T04:23:42;92852.19;;;3.62;100.00
59367;BME280;45163;47.690;11.770;2023-04-22T04:26:08;92849.16;;;3.57;100.00
59367;BME280;45163;47.690;11.770;2023-04-22T04:28:34;92855.25;;;3.64;100.00
59367;BME280;45163;47.690;11.770;2023-04-22T04:31:00;92853.44;;;3.50;100.00
59367;BME280;45163;47.690;11.770;2023-04-22T04:33:30;92862.19;;;3.65;100.00
59367;BME280;45163;47.690;11.770;2023-04-22T04:35:59;92862.97;;;3.62;100.00
59367;BME280;45163;47.690;11.770;2023-04-22T04:38:25;92858.00;;;3.61;100.00
59367;BME280;45163;47.690;11.770;2023-04-22T04:40:52;92858.31;;;3.66;100.00
59367;BME280;45163;47.690;11.770;2023-04-22T04:43:18;92855.69;;;3.59;100.00
59367;BME280;45163;47.690;11.770;2023-04-22T04:45:44;92854.38;;;3.74;100.00
59367;BME280;45163;47.690;11.770;2023-04-22T04:48:14;92855.47;;;3.81;100.00
59367;BME280;45163;47.690;11.770;2023-04-22T04:50:41;92858.53;;;3.83;100.00
59367;BME280;45163;47.690;11.770;2023-04-22T04:53:08;92864.34;;;3.81;100.00
59367;BME280;45163;47.690;11.770;2023-04-22T04:55:35;92868.41;;;3.96;100.00
59367;BME280;45163;47.690;11.770;2023-04-22T04:58:01;92866.59;;;3.86;100.00
59367;BME280;45163;47.690;11.770;2023-04-22T05:00:27;92859.28;;;3.83;100.00
59367;BME280;45163;47.690;11.770;2023-04-22T05:02:53;92860.41;;;3.89;100.00
59367;BME280;45163;47.690;11.770;2023-04-22T05:05:19;92857.63;;;3.93;100.00
59367;BME280;45163;47.690;11.770;2023-04-22T05:07:45;92856.94;;;3.89;100.00
59367;BME280;45163;47.690;11.770;2023-04-22T05:10:11;92857.47;;;4.07;100.00
59367;BME280;45163;47.690;11.770;2023-04-22T05:12:37;92850.47;;;4.44;100.00
59367;BME280;45163;47.690;11.770;2023-04-22T05:15:04;92854.81;;;4.65;100.00
59367;BME280;45163;47.690;11.770;2023-04-22T05:17:30;92843.75;;;4.83;100.00
59367;BME280;45163;47.690;11.770;2023-04-22T05:19:56;92845.97;;;5.15;100.00
59367;BME280;45163;47.690;11.770;2023-04-22T05:22:22;92842.47;;;5.38;100.00
59367;BME280;45163;47.690;11.770;2023-04-22T05:24:48;92841.66;;;5.64;100.00
59367;BME280;45163;47.690;11.770;2023-04-22T05:27:14;92834.19;;;5.92;100.00
59367;BME280;45163;47.690;11.770;2023-04-22T05:29:40;92837.09;;;6.21;100.00
59367;BME280;45163;47.690;11.770;2023-04-22T05:32:06;92828.22;;;6.40;100.00
59367;BME280;45163;47.690;11.770;2023-04-22T05:34:34;92827.47;;;6.56;100.00
59367;BME280;45163;47.690;11.770;2023-04-22T05:37:03;92826.56;;;6.63;100.00
59367;BME280;45163;47.690;11.770;2023-04-22T05:39:30;92829.94;;;6.67;100.00
59367;BME280;45163;47.690;11.770;2023-04-22T05:41:56;92834.28;;;6.81;100.00
59367;BME280;45163;47.690;11.770;2023-04-22T05:44:22;92827.94;;;6.87;100.00
59367;BME280;45163;47.690;11.770;2023-04-22T05:46:48;92825.41;;;6.96;100.00
59367;BME280;45163;47.690;11.770;2023-04-22T05:49:14;92827.69;;;7.14;100.00
59367;BME280;45163;47.690;11.770;2023-04-22T05:51:40;92827.63;;;7.34;100.00
59367;BME280;45163;47.690;11.770;2023-04-22T05:54:06;92835.72;;;7.67;100.00
59367;BME280;45163;47.690;11.770;2023-04-22T05:56:32;92829.91;;;7.81;100.00
59367;BME280;45163;47.690;11.770;2023-04-22T05:58:58;92834.84;;;8.15;100.00
59367;BME280;45163;47.690;11.770;2023-04-22T06:01:24;92826.88;;;8.37;100.00
59367;BME280;45163;47.690;11.770;2023-04-22T06:03:50;92823.66;;;8.81;100.00
59367;BME280;45163;47.690;11.770;2023-04-22T06:06:16;92826.13;;;9.39;100.00
59367;BME280;45163;47.690;11.770;2023-04-22T06:08:43;92818.97;;;9.80;100.00
59367;BME280;45163;47.690;11.770;2023-04-22T06:11:09;92820.75;;;10.30;100.00
59367;BME280;45163;47.690;11.770;2023-04-22T06:13:35;92824.28;;;10.62;100.00
59367;BME280;45163;47.690;11.770;2023-04-22T06:16:01;92821.19;;;10.82;100.00
59367;BME280;45163;47.690;11.770;2023-04-22T06:18:29;92824.44;;;11.30;100.00
59367;BME280;45163;47.690;11.770;2023-04-22T06:20:57;92817.59;;;11.93;100.00
59367;BME280;45163;47.690;11.770;2023-04-22T06:23:23;92816.44;;;12.82;100.00
59367;BME280;45163;47.690;11.770;2023-04-22T06:25:48;92820.56;;;13.86;100.00
59367;BME280;45163;47.690;11.770;2023-04-22T06:28:14;92812.97;;;14.59;100.00
59367;BME280;45163;47.690;11.770;2023-04-22T06:30:40;92813.75;;;15.04;100.00
59367;BME280;45163;47.690;11.770;2023-04-22T06:33:06;92807.25;;;15.51;100.00
59367;BME280;45163;47.690;11.770;2023-04-22T06:35:32;92797.94;;;15.49;100.00
59367;BME280;45163;47.690;11.770;2023-04-22T06:37:58;92799.69;;;16.02;100.00
59367;BME280;45163;47.690;11.770;2023-04-22T06:40:25;92794.13;;;16.42;100.00
59367;BME280;45163;47.690;11.770;2023-04-22T06:42:50;92801.59;;;16.83;100.00
59367;BME280;45163;47.690;11.770;2023-04-22T06:45:16;92798.09;;;16.82;100.00
59367;BME280;45163;47.690;11.770;2023-04-22T06:47:42;92798.84;;;17.46;96.99
59367;BME280;45163;47.690;11.770;2023-04-22T06:50:09;92804.81;;;17.76;92.24
59367;BME280;45163;47.690;11.770;2023-04-22T06:52:35;92793.78;;;17.76;85.69
59367;BME280;45163;47.690;11.770;2023-04-22T06:55:02;92806.25;;;18.03;76.81
59367;BME280;45163;47.690;11.770;2023-04-22T06:57:29;92807.41;;;17.48;82.71
59367;BME280;45163;47.690;11.770;2023-04-22T06:59:55;92805.59;;;17.77;83.74
59367;BME280;45163;47.690;11.770;2023-04-22T07:02:21;92804.22;;;17.98;72.25
59367;BME280;45163;47.690;11.770;2023-04-22T07:04:47;92800.28;;;18.22;75.32
59367;BME280;45163;47.690;11.770;2023-04-22T07:07:13;92807.03;;;18.75;80.83
59367;BME280;45163;47.690;11.770;2023-04-22T07:09:39;92808.38;;;19.69;66.22
59367;BME280;45163;47.690;11.770;2023-04-22T07:12:05;92801.75;;;20.00;65.40
59367;BME280;45163;47.690;11.770;2023-04-22T07:14:31;92791.78;;;20.38;58.90
59367;BME280;45163;47.690;11.770;2023-04-22T07:16:58;92796.50;;;21.07;54.36
59367;BME280;45163;47.690;11.770;2023-04-22T07:19:25;92801.66;;;20.86;52.29
59367;BME280;45163;47.690;11.770;2023-04-22T07:21:51;92788.22;;;20.44;53.92
59367;BME280;45163;47.690;11.770;2023-04-22T07:24:17;92785.47;;;20.49;50.76
59367;BME280;45163;47.690;11.770;2023-04-22T07:26:43;92781.97;;;20.37;47.45
59367;BME280;45163;47.690;11.770;2023-04-22T07:29:10;92778.69;;;20.92;49.59
59367;BME280;45163;47.690;11.770;2023-04-22T07:31:37;92782.47;;;20.88;46.64
59367;BME280;45163;47.690;11.770;2023-04-22T07:34:03;92782.50;;;21.24;44.71
59367;BME280;45163;47.690;11.770;2023-04-22T07:36:30;92777.59;;;21.42;42.89
59367;BME280;45163;47.690;11.770;2023-04-22T07:38:59;92771.00;;;21.45;47.37
59367;BME280;45163;47.690;11.770;2023-04-22T07:41:25;92775.06;;;22.42;41.81
59367;BME280;45163;47.690;11.770;2023-04-22T07:43:51;92772.22;;;22.85;40.10
59367;BME280;45163;47.690;11.770;2023-04-22T07:46:17;92777.00;;;23.41;38.89
59367;BME280;45163;47.690;11.770;2023-04-22T07:48:43;92772.84;;;24.06;36.33
59367;BME280;45163;47.690;11.770;2023-04-22T07:51:09;92772.97;;;24.14;33.06
59367;BME280;45163;47.690;11.770;2023-04-22T07:53:34;92766.31;;;24.30;36.27
59367;BME280;45163;47.690;11.770;2023-04-22T07:56:01;92772.81;;;24.73;34.34
59367;BME280;45163;47.690;11.770;2023-04-22T07:58:27;92765.16;;;24.87;35.21
59367;BME280;45163;47.690;11.770;2023-04-22T08:00:53;92773.84;;;24.96;33.27
59367;BME280;45163;47.690;11.770;2023-04-22T08:03:19;92768.38;;;24.91;31.41
59367;BME280;45163;47.690;11.770;2023-04-22T08:05:45;92764.13;;;25.66;33.82
59367;BME280;45163;47.690;11.770;2023-04-22T08:08:11;92767.53;;;25.30;33.24
59367;BME280;45163;47.690;11.770;2023-04-22T08:10:37;92760.25;;;25.48;32.08
59367;BME280;45163;47.690;11.770;2023-04-22T08:13:03;92764.38;;;26.25;31.02
59367;BME280;45163;47.690;11.770;2023-04-22T08:15:29;92759.19;;;27.01;29.52
59367;BME280;45163;47.690;11.770;2023-04-22T08:17:55;92755.13;;;27.10;27.66
59367;BME280;45163;47.690;11.770;2023-04-22T08:20:21;92763.50;;;27.77;29.16
59367;BME280;45163;47.690;11.770;2023-04-22T08:22:48;92761.81;;;27.97;28.26
59367;BME280;45163;47.690;11.770;2023-04-22T08:25:16;92753.94;;;28.11;27.22
59367;BME280;45163;47.690;11.770;2023-04-22T08:27:42;92747.00;;;28.35;25.40
59367;BME280;45163;47.690;11.770;2023-04-22T08:30:08;92754.84;;;28.44;24.08
59367;BME280;45163;47.690;11.770;2023-04-22T08:32:34;92746.94;;;29.13;25.54
59367;BME280;45163;47.690;11.770;2023-04-22T08:35:00;92758.03;;;28.17;26.87
59367;BME280;45163;47.690;11.770;2023-04-22T08:37:28;92750.38;;;28.41;26.85
59367;BME280;45163;47.690;11.770;2023-04-22T08:39:54;92747.75;;;29.39;25.60
59367;BME280;45163;47.690;11.770;2023-04-22T08:42:21;92749.50;;;30.09;24.51
59367;BME280;45163;47.690;11.770;2023-04-22T08:44:48;92743.06;;;30.16;21.38
59367;BME280;45163;47.690;11.770;2023-04-22T08:47:15;92748.19;;;29.60;23.04
59367;BME280;45163;47.690;11.770;2023-04-22T08:49:44;92748.94;;;30.11;20.73
59367;BME280;45163;47.690;11.770;2023-04-22T08:52:11;92751.06;;;30.45;20.50
59367;BME280;45163;47.690;11.770;2023-04-22T08:54:43;92749.88;;;30.31;21.19
59367;BME280;45163;47.690;11.770;2023-04-22T08:57:09;92752.00;;;31.26;17.39
59367;BME280;45163;47.690;11.770;2023-04-22T08:59:37;92750.47;;;30.46;21.02
59367;BME280;45163;47.690;11.770;2023-04-22T09:02:04;92738.03;;;31.19;18.82
59367;BME280;45163;47.690;11.770;2023-04-22T09:04:31;92747.31;;;31.56;17.68
59367;BME280;45163;47.690;11.770;2023-04-22T09:06:59;92739.66;;;30.78;18.12
59367;BME280;45163;47.690;11.770;2023-04-22T09:09:27;92735.09;;;31.44;17.22
59367;BME280;45163;47.690;11.770;2023-04-22T09:11:55;92737.56;;;30.61;16.82
59367;BME280;45163;47.690;11.770;2023-04-22T09:14:23;92737.22;;;31.53;15.86
59367;BME280;45163;47.690;11.770;2023-04-22T09:16:49;92733.91;;;30.33;17.28
59367;BME280;45163;47.690;11.770;2023-04-22T09:19:15;92717.06;;;31.12;15.13
59367;BME280;45163;47.690;11.770;2023-04-22T09:21:41;92720.91;;;31.61;15.81
59367;BME280;45163;47.690;11.770;2023-04-22T09:24:09;92721.75;;;31.54;17.47
59367;BME280;45163;47.690;11.770;2023-04-22T09:26:39;92722.16;;;31.78;15.73
59367;BME280;45163;47.690;11.770;2023-04-22T09:29:06;92724.38;;;31.69;18.12
59367;BME280;45163;47.690;11.770;2023-04-22T09:31:35;92722.16;;;29.27;22.02
59367;BME280;45163;47.690;11.770;2023-04-22T09:34:05;92719.59;;;28.66;23.46
59367;BME280;45163;47.690;11.770;2023-04-22T09:36:31;92716.75;;;28.73;24.23
59367;BME280;45163;47.690;11.770;2023-04-22T09:39:07;92719.69;;;28.83;23.16
59367;BME280;45163;47.690;11.770;2023-04-22T09:41:37;92714.41;;;29.02;22.89
59367;BME280;45163;47.690;11.770;2023-04-22T09:44:08;92718.53;;;30.09;20.90
59367;BME280;45163;47.690;11.770;2023-04-22T09:46:35;92712.88;;;30.51;20.10
59367;BME280;45163;47.690;11.770;2023-04-22T09:49:01;92707.16;;;30.94;20.66
59367;BME280;45163;47.690;11.770;2023-04-22T09:51:28;92712.47;;;30.72;19.93
59367;BME280;45163;47.690;11.770;2023-04-22T09:56:46;92700.78;;;30.59;19.24
59367;BME280;45163;47.690;11.770;2023-04-22T09:59:21;92698.34;;;31.34;18.59
59367;BME280;45163;47.690;11.770;2023-04-22T10:01:48;92692.75;;;31.17;18.16
59367;BME280;45163;47.690;11.770;2023-04-22T10:04:14;92698.06;;;31.67;19.22
59367;BME280;45163;47.690;11.770;2023-04-22T10:06:41;92695.25;;;31.13;20.28
59367;BME280;45163;47.690;11.770;2023-04-22T10:09:08;92686.88;;;31.05;19.22
59367;BME280;45163;47.690;11.770;2023-04-22T10:11:34;92688.94;;;30.78;20.16
59367;BME280;45163;47.690;11.770;2023-04-22T10:14:01;92680.66;;;30.62;19.83
59367;BME280;45163;47.690;11.770;2023-04-22T10:16:29;92678.28;;;31.94;19.51
59367;BME280;45163;47.690;11.770;2023-04-22T10:18:58;92686.16;;;31.68;20.63
59367;BME280;45163;47.690;11.770;2023-04-22T10:21:25;92678.81;;;31.19;20.59
59367;BME280;45163;47.690;11.770;2023-04-22T10:23:51;92681.59;;;30.47;20.83
59367;BME280;45163;47.690;11.770;2023-04-22T10:26:56;92683.63;;;30.64;20.79
59367;BME280;45163;47.690;11.770;2023-04-22T10:29:24;92679.56;;;30.58;20.80
59367;BME280;45163;47.690;11.770;2023-04-22T10:32:05;92681.97;;;30.26;21.20
59367;BME280;45163;47.690;11.770;2023-04-22T10:34:32;92681.88;;;30.17;21.46
59367;BME280;45163;47.690;11.770;2023-04-22T10:37:09;92680.38;;;29.98;21.47
59367;BME280;45163;47.690;11.770;2023-04-22T10:39:37;92677.34;;;30.21;21.67
59367;BME280;45163;47.690;11.770;2023-04-22T10:42:06;92670.28;;;30.65;21.81
59367;BME280;45163;47.690;11.770;2023-04-22T10:44:52;92671.66;;;31.18;20.95
59367;BME280;45163;47.690;11.770;2023-04-22T10:47:31;92666.78;;;30.91;21.47
59367;BME280;45163;47.690;11.770;2023-04-22T10:50:22;92665.41;;;31.10;21.11
59367;BME280;45163;47.690;11.770;2023-04-22T10:52:55;92667.69;;;31.85;19.87
59367;BME280;45163;47.690;11.770;2023-04-22T10:55:22;92667.31;;;32.17;20.07
59367;BME280;45163;47.690;11.770;2023-04-22T10:57:50;92661.19;;;31.55;20.81
59367;BME280;45163;47.690;11.770;2023-04-22T11:00:29;92663.66;;;30.70;20.78
59367;BME280;45163;47.690;11.770;2023-04-22T11:05:31;92652.47;;;31.70;19.69
59367;BME280;45163;47.690;11.770;2023-04-22T11:08:06;92657.63;;;31.28;21.13
59367;BME280;45163;47.690;11.770;2023-04-22T11:10:38;92657.97;;;31.32;19.85
59367;BME280;45163;47.690;11.770;2023-04-22T11:13:13;92650.25;;;31.05;20.58
59367;BME280;45163;47.690;11.770;2023-04-22T11:15:41;92647.44;;;30.61;20.62
59367;BME280;45163;47.690;11.770;2023-04-22T11:18:28;92643.63;;;30.48;22.16
59367;BME280;45163;47.690;11.770;2023-04-22T11:20:54;92644.88;;;31.63;21.62
59367;BME280;45163;47.690;11.770;2023-04-22T11:23:26;92646.09;;;32.45;20.77
59367;BME280;45163;47.690;11.770;2023-04-22T11:25:53;92650.53;;;32.29;20.76
59367;BME280;45163;47.690;11.770;2023-04-22T11:28:20;92644.75;;;32.76;20.53
59367;BME280;45163;47.690;11.770;2023-04-22T11:30:47;92646.41;;;32.50;20.01
59367;BME280;45163;47.690;11.770;2023-04-22T11:33:14;92641.09;;;33.24;19.45
59367;BME280;45163;47.690;11.770;2023-04-22T11:35:41;92637.31;;;33.50;17.20
59367;BME280;45163;47.690;11.770;2023-04-22T11:38:08;92638.84;;;34.04;16.98
59367;BME280;45163;47.690;11.770;2023-04-22T11:40:36;92637.13;;;32.97;18.42
59367;BME280;45163;47.690;11.770;2023-04-22T11:43:05;92636.94;;;33.25;17.12
59367;BME280;45163;47.690;11.770;2023-04-22T11:45:35;92633.69;;;33.09;19.08
59367;BME280;45163;47.690;11.770;2023-04-22T11:48:03;92635.63;;;33.16;18.39
59367;BME280;45163;47.690;11.770;2023-04-22T11:50:31;92637.22;;;33.69;17.87
59367;BME280;45163;47.690;11.770;2023-04-22T11:53:18;92628.94;;;33.02;19.27
59367;BME280;45163;47.690;11.770;2023-04-22T11:55:48;92629.47;;;33.29;18.82
59367;BME280;45163;47.690;11.770;2023-04-22T11:58:17;92631.59;;;33.60;18.40
59367;BME280;45163;47.690;11.770;2023-04-22T12:00:46;92629.59;;;33.31;17.34
59367;BME280;45163;47.690;11.770;2023-04-22T12:03:17;92635.75;;;33.28;18.25
59367;BME280;45163;47.690;11.770;2023-04-22T12:08:13;92632.41;;;32.71;19.47
59367;BME280;45163;47.690;11.770;2023-04-22T12:10:48;92635.25;;;32.52;19.14
59367;BME280;45163;47.690;11.770;2023-04-22T12:15:44;92627.09;;;31.70;19.40
59367;BME280;45163;47.690;11.770;2023-04-22T12:18:10;92623.47;;;32.07;19.41
59367;BME280;45163;47.690;11.770;2023-04-22T12:20:40;92632.69;;;30.18;20.43
59367;BME280;45163;47.690;11.770;2023-04-22T12:23:14;92643.56;;;29.62;21.06
59367;BME280;45163;47.690;11.770;2023-04-22T12:25:41;92627.75;;;30.70;20.45
59367;BME280;45163;47.690;11.770;2023-04-22T12:28:08;92629.69;;;31.49;19.91
59367;BME280;45163;47.690;11.770;2023-04-22T12:30:34;92625.81;;;30.46;20.44
59367;BME280;45163;47.690;11.770;2023-04-22T12:33:00;92624.28;;;29.75;21.25
59367;BME280;45163;47.690;11.770;2023-04-22T12:35:26;92628.78;;;29.28;22.64
59367;BME280;45163;47.690;11.770;2023-04-22T12:37:52;92628.00;;;28.30;22.83
59367;BME280;45163;47.690;11.770;2023-04-22T12:40:18;92625.47;;;27.94;24.13
59367;BME280;45163;47.690;11.770;2023-04-22T12:42:44;92629.63;;;27.16;24.54
59367;BME280;45163;47.690;11.770;2023-04-22T12:45:10;92632.91;;;26.76;25.46
59367;BME280;45163;47.690;11.770;2023-04-22T12:47:36;92626.41;;;26.38;25.01
59367;BME280;45163;47.690;11.770;2023-04-22T12:50:03;92627.41;;;26.48;25.75
59367;BME280;45163;47.690;11.770;2023-04-22T12:52:32;92620.72;;;26.58;26.33
59367;BME280;45163;47.690;11.770;2023-04-22T12:54:59;92627.19;;;27.28;25.73
59367;BME280;45163;47.690;11.770;2023-04-22T12:57:25;92626.03;;;27.00;24.55
59367;BME280;45163;47.690;11.770;2023-04-22T12:59:51;92636.53;;;27.23;25.26